Time;durP1;ratioP1;P1;durP2;ratioP2;P2;SDS_P1;SDS_P2;PMS_P1;PMS_P2;Temp;Humidity;BMP_temperature;BMP_pressure;BME280_temperature;BME280_humidity;BME280_pressure;Samples;Min_cycle;Max_cycle;Signal;HPM_P1;HPM_P2
2022/05/14 00:01:11;;;;;;;16.45;4.10;;;;;;;10.30;80.11;99847.69;4984711;28;20023;-58
2022/05/14 00:03:40;;;;;;;10.63;4.22;;;;;;;10.40;79.85;99852.50;4985758;28;20432;-59
2022/05/14 00:06:13;;;;;;;12.82;4.07;;;;;;;10.35;79.29;99855.03;4979869;28;20081;-59
2022/05/14 00:08:39;;;;;;;12.95;3.80;;;;;;;10.08;80.91;99852.69;4985132;28;20030;-58
2022/05/14 00:13:50;;;;;;;12.57;4.13;;;;;;;10.23;81.17;99851.44;4984925;28;20453;-58
2022/05/14 00:16:16;;;;;;;9.23;3.97;;;;;;;9.84;81.32;99849.03;4983969;28;20518;-59
2022/05/14 00:18:41;;;;;;;6.72;3.83;;;;;;;9.83;81.62;99852.72;4982717;28;20035;-58
2022/05/14 00:21:07;;;;;;;11.85;4.10;;;;;;;9.63;83.05;99842.22;4983007;28;20026;-58
2022/05/14 00:23:33;;;;;;;10.75;4.07;;;;;;;9.79;83.46;99840.03;4990291;28;20424;-58
2022/05/14 00:25:58;;;;;;;9.40;4.20;;;;;;;9.88;82.06;99838.66;4986334;28;20665;-59
2022/05/14 00:28:24;;;;;;;10.43;3.80;;;;;;;9.88;81.90;99839.50;4992701;28;20077;-58
2022/05/14 00:30:49;;;;;;;9.27;4.18;;;;;;;9.88;82.64;99838.66;4982079;28;20093;-58
2022/05/14 00:33:15;;;;;;;8.98;3.88;;;;;;;9.83;82.91;99830.47;4986269;28;20074;-58
2022/05/14 00:35:41;;;;;;;7.40;3.40;;;;;;;9.95;82.74;99834.06;4985599;28;20064;-58
2022/05/14 00:38:08;;;;;;;12.25;3.65;;;;;;;10.20;81.79;99830.47;4985328;28;20106;-58
2022/05/14 00:40:47;;;;;;;7.88;3.45;;;;;;;10.42;80.42;99820.94;4985143;28;20026;-58
2022/05/14 00:43:13;;;;;;;8.13;3.90;;;;;;;10.20;81.18;99833.97;4969521;28;20113;-58
2022/05/14 00:45:41;;;;;;;10.40;4.07;;;;;;;10.15;81.54;99826.59;4993799;28;20130;-58
2022/05/14 00:48:07;;;;;;;12.68;3.78;;;;;;;9.94;82.38;99829.75;5004535;28;20022;-58
2022/05/14 00:50:51;;;;;;;6.78;3.95;;;;;;;9.87;82.84;99837.03;4991998;28;20021;-58
2022/05/14 00:53:20;;;;;;;6.68;3.05;;;;;;;9.81;83.11;99837.91;4991627;28;20473;-58
2022/05/14 00:55:47;;;;;;;9.88;3.50;;;;;;;9.77;83.66;99842.09;5008435;28;20037;-58
2022/05/14 00:58:35;;;;;;;6.88;3.22;;;;;;;9.70;83.82;99842.97;5009718;28;20032;-58
2022/05/14 01:01:01;;;;;;;8.43;3.60;;;;;;;9.61;84.82;99844.31;5007896;28;20025;-58
2022/05/14 01:03:28;;;;;;;8.68;3.50;;;;;;;9.39;85.36;99837.72;5009229;28;20040;-58
2022/05/14 01:05:53;;;;;;;11.50;3.40;;;;;;;9.26;86.04;99842.16;5008670;28;20515;-58
2022/05/14 01:08:19;;;;;;;8.77;3.95;;;;;;;9.24;85.80;99838.88;4975985;28;20112;-58
2022/05/14 01:10:45;;;;;;;6.80;3.47;;;;;;;9.28;86.10;99839.25;4990974;28;20084;-58
2022/05/14 01:13:10;;;;;;;7.55;3.72;;;;;;;9.24;86.41;99838.06;5010094;28;20109;-58
2022/05/14 01:15:52;;;;;;;8.50;3.75;;;;;;;9.15;85.50;99837.50;5007933;28;20235;-58
2022/05/14 01:18:19;;;;;;;8.90;3.35;;;;;;;9.06;86.31;99842.31;5004393;28;20258;-58
2022/05/14 01:21:06;;;;;;;8.63;3.45;;;;;;;9.08;87.61;99839.41;4990064;28;20054;-58
2022/05/14 01:26:35;;;;;;;5.38;3.30;;;;;;;9.14;86.55;99833.22;4993165;28;20129;-58
2022/05/14 01:29:12;;;;;;;6.93;3.10;;;;;;;9.17;85.96;99838.13;4991678;28;20192;-59
2022/05/14 01:31:38;;;;;;;8.10;3.20;;;;;;;9.21;85.94;99833.97;5003870;28;20425;-58
2022/05/14 01:34:06;;;;;;;6.57;2.80;;;;;;;9.23;86.02;99837.22;5008937;28;20049;-58
2022/05/14 01:36:35;;;;;;;7.80;3.03;;;;;;;9.12;86.27;99843.28;5001937;28;20454;-58
2022/05/14 01:39:01;;;;;;;7.38;3.20;;;;;;;9.09;86.47;99841.06;5009299;28;20026;-58
2022/05/14 01:41:27;;;;;;;7.90;3.53;;;;;;;8.92;86.79;99838.09;5007643;28;20065;-58
2022/05/14 01:43:52;;;;;;;6.25;3.30;;;;;;;8.89;87.37;99843.88;5008482;28;20115;-58
2022/05/14 01:46:19;;;;;;;8.95;3.75;;;;;;;8.86;86.84;99846.97;5007079;28;20536;-58
2022/05/14 01:48:45;;;;;;;8.52;3.22;;;;;;;8.76;87.63;99842.13;5007610;28;20506;-58
2022/05/14 01:51:10;;;;;;;8.30;3.10;;;;;;;8.79;87.71;99841.69;5008489;28;20026;-58
2022/05/14 01:53:38;;;;;;;5.57;2.92;;;;;;;8.77;88.09;99842.94;5008056;28;20065;-58
2022/05/14 01:56:04;;;;;;;6.65;3.72;;;;;;;8.47;88.18;99840.03;5007190;28;20029;-58
2022/05/14 01:58:39;;;;;;;6.28;3.60;;;;;;;8.69;88.79;99840.53;5008169;28;20372;-58
2022/05/14 02:01:15;;;;;;;7.70;3.47;;;;;;;8.58;87.81;99839.34;5004393;28;20377;-58
2022/05/14 02:03:43;;;;;;;8.80;3.45;;;;;;;8.72;87.25;99832.88;5004711;28;20046;-59
2022/05/14 02:06:08;;;;;;;7.97;3.05;;;;;;;8.70;87.08;99842.16;4978764;28;20038;-59
2022/05/14 02:08:34;;;;;;;5.68;3.45;;;;;;;8.48;86.90;99833.63;4989875;28;20184;-59
2022/05/14 02:11:00;;;;;;;10.40;3.58;;;;;;;8.50;87.84;99844.94;5003769;28;20014;-58
2022/05/14 02:13:26;;;;;;;9.50;3.53;;;;;;;8.45;88.54;99834.06;4987037;28;20044;-58
2022/05/14 02:15:52;;;;;;;7.90;3.83;;;;;;;8.58;88.50;99837.47;4983520;28;20026;-59
2022/05/14 02:18:19;;;;;;;4.75;3.13;;;;;;;8.57;89.11;99833.19;5007764;28;20049;-59
2022/05/14 02:20:44;;;;;;;7.28;3.40;;;;;;;8.47;87.92;99840.84;5005307;28;20531;-59
2022/05/14 02:23:10;;;;;;;8.18;3.70;;;;;;;8.34;89.10;99838.22;5004993;28;20040;-59
2022/05/14 02:25:36;;;;;;;13.82;5.72;;;;;;;8.45;89.37;99834.06;5007284;28;20101;-58
2022/05/14 02:28:02;;;;;;;10.15;3.97;;;;;;;8.32;87.09;99834.94;5007560;28;20036;-59
2022/05/14 02:30:27;;;;;;;17.25;6.43;;;;;;;8.28;89.14;99833.72;5006469;28;20411;-59
2022/05/14 02:32:53;;;;;;;8.20;4.82;;;;;;;8.44;88.93;99833.25;5006701;28;20431;-59
2022/05/14 02:35:18;;;;;;;8.65;5.22;;;;;;;8.63;89.54;99836.84;5007703;28;20065;-59
2022/05/14 02:37:44;;;;;;;10.73;5.18;;;;;;;8.49;89.16;99828.09;5007320;28;20133;-59
2022/05/14 02:40:10;;;;;;;9.88;4.88;;;;;;;8.34;90.21;99828.34;5006696;28;20507;-59
2022/05/14 02:42:36;;;;;;;8.13;4.15;;;;;;;8.32;89.46;99825.06;4987995;28;20278;-59
2022/05/14 02:45:02;;;;;;;15.23;5.22;;;;;;;8.27;89.50;99827.56;4985875;28;20093;-59
2022/05/14 02:47:28;;;;;;;8.70;4.70;;;;;;;8.32;89.19;99830.41;5007437;28;20033;-59
2022/05/14 02:49:53;;;;;;;9.40;4.50;;;;;;;8.37;89.36;99833.25;5006514;28;20539;-59
2022/05/14 02:52:19;;;;;;;11.93;4.55;;;;;;;8.26;89.68;99825.91;5007426;28;20038;-59
2022/05/14 02:54:44;;;;;;;6.68;4.13;;;;;;;8.38;90.25;99818.84;5006333;28;20111;-59
2022/05/14 02:57:10;;;;;;;14.23;4.85;;;;;;;8.44;89.37;99819.91;4988497;28;20124;-59
2022/05/14 02:59:36;;;;;;;8.70;4.78;;;;;;;8.54;88.96;99814.09;5005429;28;20112;-58
2022/05/14 03:02:03;;;;;;;8.55;4.35;;;;;;;8.50;87.86;99821.69;4989647;28;20061;-59
2022/05/14 03:04:31;;;;;;;6.00;3.78;;;;;;;8.33;87.64;99816.00;5006823;28;20036;-59
2022/05/14 03:06:57;;;;;;;7.55;3.92;;;;;;;8.28;87.82;99821.16;5006299;28;20181;-59
2022/05/14 03:09:23;;;;;;;8.32;3.97;;;;;;;8.08;87.15;99825.78;4988567;28;20030;-59
2022/05/14 03:11:48;;;;;;;8.50;4.07;;;;;;;8.10;88.06;99827.22;4977908;28;20507;-59
2022/05/14 03:14:14;;;;;;;8.98;4.00;;;;;;;7.95;88.86;99824.78;4999925;28;20519;-59
2022/05/14 03:16:43;;;;;;;5.70;3.42;;;;;;;7.94;90.18;99817.00;5006531;28;20053;-59
2022/05/14 03:19:09;;;;;;;9.25;3.88;;;;;;;7.94;90.22;99817.81;5001675;28;20088;-60
2022/05/14 03:21:36;;;;;;;10.40;4.45;;;;;;;7.91;89.30;99820.09;5010844;28;20533;-59
2022/05/14 03:24:01;;;;;;;7.38;3.95;;;;;;;7.77;89.27;99816.66;5006574;28;20037;-59
2022/05/14 03:26:27;;;;;;;11.00;4.00;;;;;;;7.97;90.59;99813.91;5003983;28;20022;-60
2022/05/14 03:28:52;;;;;;;9.77;3.92;;;;;;;7.78;88.57;99819.09;5005670;28;20653;-59
2022/05/14 03:31:18;;;;;;;11.90;4.60;;;;;;;7.66;88.95;99819.94;5005709;28;20054;-59
2022/05/14 03:33:44;;;;;;;9.07;4.28;;;;;;;7.69;88.76;99819.56;5005094;28;20409;-59
2022/05/14 03:36:10;;;;;;;8.13;4.32;;;;;;;7.49;88.22;99822.25;4987545;28;20033;-60
2022/05/14 03:38:36;;;;;;;7.82;4.47;;;;;;;7.44;89.35;99825.53;5005562;28;20092;-58
2022/05/14 03:41:02;;;;;;;8.20;4.05;;;;;;;7.42;89.84;99826.78;5005604;28;20042;-58
2022/05/14 03:43:27;;;;;;;11.10;4.13;;;;;;;7.20;89.89;99837.66;5006716;28;20026;-60
2022/05/14 03:45:53;;;;;;;8.40;4.43;;;;;;;6.91;93.39;99838.88;5005456;28;20463;-59
2022/05/14 03:48:18;;;;;;;10.95;4.80;;;;;;;7.40;95.53;99832.31;4997527;28;20033;-59
2022/05/14 03:50:44;;;;;;;16.17;4.88;;;;;;;7.29;92.92;99832.94;5006494;28;20365;-58
2022/05/14 03:53:09;;;;;;;10.45;4.57;;;;;;;7.49;93.00;99839.06;5005027;28;20030;-57
2022/05/14 03:55:35;;;;;;;8.80;4.45;;;;;;;7.68;91.66;99833.91;4987251;28;20026;-59
2022/05/14 03:58:01;;;;;;;9.27;4.30;;;;;;;7.65;90.08;99840.47;5005763;28;20022;-60
2022/05/14 04:00:26;;;;;;;10.27;4.20;;;;;;;7.79;92.05;99838.63;5000624;28;20461;-58
2022/05/14 04:02:52;;;;;;;10.95;4.43;;;;;;;7.85;92.90;99845.78;5005899;28;20077;-58
2022/05/14 04:05:17;;;;;;;12.50;4.13;;;;;;;7.78;90.79;99845.78;4987647;28;20527;-59
2022/05/14 04:07:43;;;;;;;8.77;4.20;;;;;;;7.72;91.37;99840.47;5003558;28;20026;-59
2022/05/14 04:10:12;;;;;;;11.63;4.57;;;;;;;7.67;91.06;99848.28;4985645;28;20030;-57
2022/05/14 04:12:38;;;;;;;9.90;4.18;;;;;;;7.51;88.77;99845.03;4987966;28;20018;-59
2022/05/14 04:15:03;;;;;;;7.10;4.18;;;;;;;7.42;88.42;99845.44;5004463;28;20034;-60
2022/05/14 04:17:29;;;;;;;10.82;4.22;;;;;;;7.46;88.96;99846.66;5006138;28;20561;-56
2022/05/14 04:19:55;;;;;;;11.85;4.43;;;;;;;7.53;91.38;99847.47;5005329;28;20025;-57
2022/05/14 04:22:20;;;;;;;8.63;4.50;;;;;;;7.65;89.21;99847.66;5005953;28;20046;-57
2022/05/14 04:24:46;;;;;;;9.32;4.07;;;;;;;8.24;88.54;99838.66;4988179;28;20384;-60
2022/05/14 04:27:11;;;;;;;7.13;3.83;;;;;;;9.07;86.74;99848.47;4987514;28;20116;-59
2022/05/14 04:29:37;;;;;;;8.15;3.92;;;;;;;9.38;80.70;99847.59;4957408;28;20050;-59
2022/05/14 04:32:03;;;;;;;10.30;4.13;;;;;;;8.68;85.10;99844.22;5003472;28;20065;-59
2022/05/14 04:34:29;;;;;;;7.07;3.97;;;;;;;8.59;84.42;99852.50;4998709;28;20034;-58
2022/05/14 04:36:55;;;;;;;8.40;4.10;;;;;;;9.49;81.40;99851.44;5005328;28;20030;-58
2022/05/14 04:39:31;;;;;;;8.90;3.95;;;;;;;12.05;70.00;99853.56;5004686;28;20526;-59
2022/05/14 04:41:59;;;;;;;7.40;3.45;;;;;;;13.84;62.37;99852.38;5003316;28;20563;-59
2022/05/14 04:44:24;;;;;;;6.75;3.10;;;;;;;14.42;60.19;99853.66;4998853;28;20032;-59
2022/05/14 04:46:50;;;;;;;6.65;3.45;;;;;;;15.44;58.87;99848.41;5004645;28;20054;-59
2022/05/14 04:49:16;;;;;;;7.25;3.22;;;;;;;14.07;61.30;99854.03;5005325;28;20022;-59
2022/05/14 04:51:42;;;;;;;6.95;3.08;;;;;;;12.85;66.60;99843.00;5005052;28;20033;-59
2022/05/14 04:54:08;;;;;;;9.25;3.40;;;;;;;10.73;74.24;99843.19;5004765;28;20034;-59
2022/05/14 04:56:33;;;;;;;7.28;3.00;;;;;;;12.05;71.69;99847.38;5005565;28;20116;-59
2022/05/14 04:58:59;;;;;;;9.45;3.50;;;;;;;15.67;57.50;99853.44;5005648;28;20116;-59
2022/05/14 05:01:25;;;;;;;9.60;3.50;;;;;;;17.30;52.44;99852.38;5005627;28;20033;-59
2022/05/14 05:03:50;;;;;;;6.43;2.72;;;;;;;18.03;50.32;99859.31;5000755;28;20494;-59
2022/05/14 05:06:18;;;;;;;5.15;2.72;;;;;;;17.85;49.70;99863.44;4986725;28;20029;-59
2022/05/14 05:08:44;;;;;;;8.40;2.72;;;;;;;17.68;49.89;99859.09;5004406;28;20037;-57
2022/05/14 05:11:10;;;;;;;6.80;2.90;;;;;;;17.96;49.13;99866.91;4988208;28;20297;-58
2022/05/14 05:13:38;;;;;;;8.23;3.00;;;;;;;18.61;48.05;99866.91;5004225;28;20083;-57
2022/05/14 05:16:04;;;;;;;5.35;2.67;;;;;;;18.50;48.61;99863.47;4988336;28;20038;-59
2022/05/14 05:18:33;;;;;;;15.23;3.00;;;;;;;19.78;45.94;99871.47;5002298;28;20025;-60
2022/05/14 05:20:59;;;;;;;7.10;2.35;;;;;;;19.43;46.43;99864.44;5005733;28;20065;-60
2022/05/14 05:23:24;;;;;;;6.05;2.67;;;;;;;19.00;47.54;99872.41;4987627;28;20061;-57
2022/05/14 05:25:50;;;;;;;7.07;2.47;;;;;;;20.13;45.06;99871.38;5003175;28;20100;-57
2022/05/14 05:28:16;;;;;;;12.00;2.60;;;;;;;21.18;42.52;99868.59;4986412;28;20022;-58
2022/05/14 05:30:42;;;;;;;5.00;2.20;;;;;;;20.38;44.29;99873.78;5004926;28;20033;-57
2022/05/14 05:33:16;;;;;;;6.03;2.70;;;;;;;20.93;42.94;99886.97;5000542;28;20137;-58
2022/05/14 05:35:42;;;;;;;6.13;2.33;;;;;;;21.33;42.37;99881.97;4988551;28;20025;-58
2022/05/14 05:38:07;;;;;;;6.55;2.75;;;;;;;22.28;41.14;99885.19;5005887;28;20392;-58
2022/05/14 05:40:33;;;;;;;7.60;2.50;;;;;;;22.36;40.41;99891.84;4973022;28;20057;-58
2022/05/14 05:42:59;;;;;;;6.32;2.45;;;;;;;21.81;42.48;99880.91;5006683;28;20061;-58
2022/05/14 05:45:25;;;;;;;7.40;2.33;;;;;;;22.19;41.14;99881.53;5005623;28;20034;-58
2022/05/14 05:47:51;;;;;;;5.63;2.45;;;;;;;22.55;40.54;99898.00;5008828;28;20080;-58
2022/05/14 05:50:16;;;;;;;5.82;2.58;;;;;;;21.16;43.75;99885.25;5006357;28;20022;-58
2022/05/14 05:52:42;;;;;;;3.50;2.20;;;;;;;21.94;42.42;99888.28;5007846;28;20363;-58
2022/05/14 05:57:52;;;;;;;6.70;2.55;;;;;;;20.78;44.61;99888.00;5001757;28;20062;-58
2022/05/14 06:00:22;;;;;;;4.88;2.30;;;;;;;21.56;42.92;99884.91;5003462;28;20113;-58
2022/05/14 06:02:47;;;;;;;4.90;2.30;;;;;;;22.04;42.43;99895.47;5006702;28;20034;-58
2022/05/14 06:05:14;;;;;;;5.03;2.38;;;;;;;20.34;45.51;99889.06;5007188;28;20421;-58
2022/05/14 06:07:39;;;;;;;6.13;2.25;;;;;;;20.97;44.62;99890.72;4990694;28;20034;-58
2022/05/14 06:10:06;;;;;;;9.05;2.33;;;;;;;22.54;41.48;99898.31;4981810;28;20062;-58
2022/05/14 06:12:34;;;;;;;5.53;2.47;;;;;;;21.92;42.95;99904.19;5001137;28;20446;-58
2022/05/14 06:15:00;;;;;;;5.97;2.38;;;;;;;22.34;42.07;99905.00;4990264;28;20384;-58
2022/05/14 06:17:26;;;;;;;4.13;2.30;;;;;;;21.64;42.84;99903.28;5008245;28;20025;-58
2022/05/14 06:19:51;;;;;;;4.95;2.20;;;;;;;23.06;40.15;99908.94;5001127;28;20453;-58
2022/05/14 06:22:17;;;;;;;8.27;2.72;;;;;;;22.53;40.02;99913.91;4989834;28;20068;-58
2022/05/14 06:24:43;;;;;;;5.80;2.47;;;;;;;22.93;40.22;99913.31;5008663;28;20091;-58
2022/05/14 06:27:09;;;;;;;8.00;2.40;;;;;;;24.07;38.14;99921.22;5008314;28;20034;-58
2022/05/14 06:29:34;;;;;;;6.72;2.50;;;;;;;23.10;38.26;99918.16;5007270;28;20025;-57
2022/05/14 06:32:00;;;;;;;7.32;2.50;;;;;;;23.39;38.54;99917.75;5006663;28;20045;-57
2022/05/14 06:34:26;;;;;;;5.72;2.40;;;;;;;23.03;38.81;99922.13;5006839;28;20040;-57
2022/05/14 06:36:51;;;;;;;6.28;2.20;;;;;;;24.38;37.44;99926.63;5003783;28;20077;-58
2022/05/14 06:39:17;;;;;;;8.63;2.50;;;;;;;24.69;36.88;99925.78;4990808;28;20508;-58
2022/05/14 06:41:43;;;;;;;6.00;2.30;;;;;;;24.11;36.82;99935.88;5007776;28;20096;-60
2022/05/14 06:44:09;;;;;;;9.60;2.50;;;;;;;24.78;36.61;99923.03;5007148;28;20034;-59
2022/05/14 06:46:35;;;;;;;6.95;2.65;;;;;;;25.33;35.56;99927.94;5005006;28;20057;-59
2022/05/14 06:49:01;;;;;;;5.93;2.38;;;;;;;25.59;34.52;99925.97;5006728;28;20076;-57
2022/05/14 06:51:27;;;;;;;8.75;2.55;;;;;;;23.59;38.15;99921.91;5006199;28;20457;-57
2022/05/14 06:53:53;;;;;;;7.50;2.40;;;;;;;23.00;39.32;99927.41;4990120;28;20068;-57
2022/05/14 06:56:19;;;;;;;7.35;2.72;;;;;;;22.38;39.96;99919.69;4990042;28;20025;-59
2022/05/14 06:58:44;;;;;;;6.25;2.47;;;;;;;21.18;42.09;99923.91;5006654;28;20030;-58
2022/05/14 07:01:10;;;;;;;10.57;2.70;;;;;;;23.73;38.37;99930.06;5005983;28;20021;-59
2022/05/14 07:06:40;;;;;;;7.68;2.90;;;;;;;18.69;47.81;99926.84;5003357;28;20041;-58
2022/05/14 07:09:27;;;;;;;7.35;2.42;;;;;;;19.33;45.65;99924.34;5004326;28;20089;-59
2022/05/14 07:11:56;;;;;;;6.72;2.65;;;;;;;22.04;41.53;99923.59;5006432;28;20066;-58
2022/05/14 07:14:52;;;;;;;8.95;2.42;;;;;;;21.95;41.43;99931.66;5005349;28;20029;-58
2022/05/14 07:17:17;;;;;;;6.45;2.50;;;;;;;22.28;40.57;99922.63;4979778;28;20099;-57
2022/05/14 07:19:43;;;;;;;5.78;2.35;;;;;;;22.27;40.31;99923.75;5006566;28;20030;-58
2022/05/14 07:22:14;;;;;;;7.28;2.30;;;;;;;24.26;38.01;99919.03;5006095;28;20058;-58
2022/05/14 07:24:40;;;;;;;7.28;2.22;;;;;;;23.53;39.04;99921.19;4997114;28;20507;-58
2022/05/14 07:27:10;;;;;;;6.70;2.40;;;;;;;23.52;38.38;99921.53;4987716;28;20036;-58
2022/05/14 07:29:35;;;;;;;6.75;2.72;;;;;;;20.47;45.15;99918.34;4987367;28;20472;-57
2022/05/14 07:32:01;;;;;;;8.10;2.47;;;;;;;22.28;42.62;99923.41;5005555;28;20033;-57
2022/05/14 07:34:27;;;;;;;8.57;2.47;;;;;;;23.69;38.19;99916.97;5004297;28;20108;-57
2022/05/14 07:36:59;;;;;;;7.80;2.45;;;;;;;25.52;36.22;99914.66;4981275;28;20564;-57
2022/05/14 07:39:27;;;;;;;6.72;2.15;;;;;;;23.26;37.94;99913.94;4997288;28;20380;-58
2022/05/14 07:41:54;;;;;;;6.97;2.40;;;;;;;24.40;37.27;99907.94;4988108;28;20034;-58
2022/05/14 07:44:21;;;;;;;6.82;2.42;;;;;;;24.85;36.52;99904.19;5002191;28;20038;-58
2022/05/14 07:46:48;;;;;;;5.93;2.10;;;;;;;23.39;37.06;99906.81;5003403;28;20068;-58
2022/05/14 07:49:14;;;;;;;7.72;2.53;;;;;;;24.70;35.44;99911.75;4984269;28;20586;-58
2022/05/14 07:51:39;;;;;;;6.88;2.35;;;;;;;24.99;35.71;99918.56;5003080;28;20141;-58
2022/05/14 07:54:14;;;;;;;6.85;2.22;;;;;;;24.77;35.43;99921.44;5003143;28;20064;-58
2022/05/14 07:56:40;;;;;;;6.28;2.20;;;;;;;21.71;40.71;99909.97;5005405;28;20389;-58
2022/05/14 07:59:06;;;;;;;4.72;2.22;;;;;;;22.01;41.65;99916.00;5005233;28;20554;-58
2022/05/14 08:01:35;;;;;;;7.47;2.20;;;;;;;25.10;36.27;99906.13;5001700;28;20109;-58
2022/05/14 08:04:00;;;;;;;6.30;2.53;;;;;;;22.05;40.51;99910.75;5004478;28;20669;-58
2022/05/14 08:06:26;;;;;;;8.73;2.45;;;;;;;23.65;37.81;99910.50;4989301;28;20034;-58
2022/05/14 08:08:53;;;;;;;5.00;2.30;;;;;;;21.49;40.29;99907.94;5005593;28;20030;-58
2022/05/14 08:11:19;;;;;;;9.38;2.45;;;;;;;22.49;39.35;99906.63;4999586;28;20469;-58
2022/05/14 08:13:45;;;;;;;4.57;2.13;;;;;;;22.90;38.89;99903.81;5005241;28;20152;-58
2022/05/14 08:16:11;;;;;;;6.50;2.42;;;;;;;24.02;37.22;99897.50;5003641;28;20036;-58
2022/05/14 08:18:37;;;;;;;4.95;2.25;;;;;;;22.22;38.59;99902.00;5005905;28;20017;-57
2022/05/14 08:26:31;;;;;;;5.70;2.15;;;;;;;24.81;34.53;99905.94;5004785;28;20040;-57
2022/05/14 08:28:57;;;;;;;5.28;2.22;;;;;;;24.75;34.49;99903.38;5004138;28;20128;-57
2022/05/14 08:31:22;;;;;;;6.45;2.00;;;;;;;24.20;36.47;99901.13;4987206;28;20129;-57
2022/05/14 08:33:48;;;;;;;7.10;2.42;;;;;;;23.67;35.91;99899.25;5004680;28;20124;-57
2022/05/14 08:36:13;;;;;;;8.65;2.63;;;;;;;23.52;36.66;99903.19;4987598;28;20068;-58
2022/05/14 08:38:39;;;;;;;8.15;2.45;;;;;;;21.07;40.60;99900.66;5003869;28;20022;-57
2022/05/14 08:41:04;;;;;;;6.32;2.47;;;;;;;22.35;39.52;99893.78;4984869;28;20413;-57
2022/05/14 08:43:44;;;;;;;6.20;2.30;;;;;;;21.15;40.75;99891.00;5005002;28;20058;-58
2022/05/14 08:46:11;;;;;;;11.10;2.20;;;;;;;20.07;41.83;99905.19;5000488;28;20403;-58
2022/05/14 08:48:37;;;;;;;13.05;2.50;;;;;;;21.71;39.00;99899.06;4976554;28;20329;-58
2022/05/14 08:51:05;;;;;;;6.78;2.13;;;;;;;22.59;36.88;99904.50;5013087;28;20048;-58
2022/05/14 08:53:31;;;;;;;6.35;2.25;;;;;;;23.87;35.50;99896.00;5005748;28;20060;-59
2022/05/14 08:56:21;;;;;;;5.35;2.15;;;;;;;24.78;34.96;99895.63;4968377;28;20124;-59
2022/05/14 08:59:25;;;;;;;5.57;2.17;;;;;;;22.49;38.07;99903.88;4999119;28;20029;-59
2022/05/14 09:01:51;;;;;;;8.82;2.45;;;;;;;22.64;37.57;99898.13;5001079;28;20033;-58
2022/05/14 09:04:17;;;;;;;4.55;2.00;;;;;;;23.03;37.58;99899.44;4955827;28;20097;-59
2022/05/14 09:06:43;;;;;;;9.38;2.20;;;;;;;23.15;36.80;99901.63;5011878;28;20136;-59
2022/05/14 09:09:09;;;;;;;7.22;2.25;;;;;;;23.34;36.41;99891.31;5004406;28;20022;-59
2022/05/14 09:11:56;;;;;;;9.35;2.47;;;;;;;19.68;44.10;99887.91;5009025;28;20506;-58
2022/05/14 09:14:29;;;;;;;7.60;2.50;;;;;;;22.27;38.37;99891.78;4990172;28;20424;-58
2022/05/14 09:17:12;;;;;;;6.63;2.35;;;;;;;23.74;36.44;99890.59;5008806;28;20480;-58
2022/05/14 09:19:39;;;;;;;6.07;2.22;;;;;;;24.57;35.44;99885.28;5002666;28;20033;-58
2022/05/14 09:22:10;;;;;;;10.52;2.28;;;;;;;25.74;33.50;99883.47;5007381;28;20120;-58
2022/05/14 09:24:43;;;;;;;8.30;2.60;;;;;;;23.98;35.98;99882.03;4987976;28;20169;-58
2022/05/14 09:27:25;;;;;;;8.07;2.20;;;;;;;23.64;37.26;99887.00;4992433;28;20037;-58
2022/05/14 09:29:54;;;;;;;6.32;2.10;;;;;;;21.91;40.21;99878.78;5006609;28;20129;-58
2022/05/14 09:32:20;;;;;;;7.75;2.75;;;;;;;22.95;38.46;99881.03;4973457;28;20057;-58
2022/05/14 09:34:46;;;;;;;9.93;2.08;;;;;;;23.57;37.01;99885.84;5007383;28;20460;-58
2022/05/14 09:37:16;;;;;;;9.38;2.22;;;;;;;21.15;41.35;99886.38;5009002;28;20121;-58
2022/05/14 09:39:41;;;;;;;5.30;2.20;;;;;;;22.03;39.31;99881.03;4988132;28;20038;-57
2022/05/14 09:42:21;;;;;;;7.57;2.10;;;;;;;24.59;35.93;99887.69;4990416;28;20566;-58
2022/05/14 09:44:48;;;;;;;7.05;2.25;;;;;;;22.67;39.19;99896.69;4970969;28;20481;-59
2022/05/14 09:47:16;;;;;;;11.85;2.97;;;;;;;23.13;38.25;99887.47;4984214;28;20030;-58
2022/05/14 09:49:52;;;;;;;6.30;2.58;;;;;;;23.53;38.62;99884.84;4991052;28;20048;-59
2022/05/14 09:52:23;;;;;;;5.80;2.20;;;;;;;24.51;35.83;99875.59;4991333;28;20550;-58
2022/05/14 09:54:50;;;;;;;6.03;2.25;;;;;;;25.42;35.18;99879.34;5007693;28;20037;-57
2022/05/14 09:57:43;;;;;;;7.82;2.63;;;;;;;24.47;34.88;99882.88;4990470;28;20073;-58
2022/05/14 10:00:18;;;;;;;6.47;2.17;;;;;;;25.02;35.45;99885.00;5003516;28;20026;-58
2022/05/14 10:02:44;;;;;;;5.60;2.10;;;;;;;25.76;33.63;99880.38;5007243;28;20038;-58
2022/05/14 10:05:32;;;;;;;8.95;2.50;;;;;;;24.03;37.19;99882.69;5007370;28;20033;-58
2022/05/14 10:08:35;;;;;;;7.72;2.30;;;;;;;22.89;38.56;99888.53;4992037;28;20030;-58
2022/05/14 10:11:27;;;;;;;5.78;2.40;;;;;;;21.90;40.13;99876.38;5007472;28;20064;-58
2022/05/14 10:14:09;;;;;;;7.20;2.45;;;;;;;23.24;37.73;99880.66;4975050;28;20047;-59
2022/05/14 10:16:34;;;;;;;7.13;2.20;;;;;;;24.64;36.67;99884.84;4986580;28;20026;-58
2022/05/14 10:19:22;;;;;;;5.80;2.17;;;;;;;26.44;32.90;99877.66;5007524;28;20079;-58
2022/05/14 10:22:07;;;;;;;8.57;2.45;;;;;;;26.25;34.27;99880.84;5006455;28;20069;-58
2022/05/14 10:27:46;;;;;;;9.50;2.30;;;;;;;23.62;37.81;99874.75;5006013;28;20055;-58
2022/05/14 10:30:41;;;;;;;7.82;2.47;;;;;;;23.79;36.88;99872.16;4991095;28;20096;-58
2022/05/14 10:33:08;;;;;;;5.05;2.17;;;;;;;25.39;35.36;99863.53;4954856;28;20117;-58
2022/05/14 10:35:52;;;;;;;10.35;2.40;;;;;;;24.13;35.89;99864.38;5007707;28;21181;-58
2022/05/14 10:38:21;;;;;;;11.30;2.10;;;;;;;23.72;37.27;99855.34;5006055;28;20030;-58
2022/05/14 10:40:49;;;;;;;5.22;1.90;;;;;;;23.88;37.61;99856.53;4989436;28;20735;-58
2022/05/14 10:43:43;;;;;;;3.72;1.90;;;;;;;22.95;39.68;99859.97;4974066;28;20032;-58
2022/05/14 10:46:10;;;;;;;6.78;2.13;;;;;;;21.91;39.88;99847.97;5009125;28;20038;-58
2022/05/14 10:48:59;;;;;;;8.48;2.22;;;;;;;21.03;42.26;99842.41;5006167;28;20040;-58
2022/05/14 10:51:30;;;;;;;5.67;2.20;;;;;;;24.05;37.70;99846.78;5002740;28;20271;-58
2022/05/14 10:53:56;;;;;;;5.40;2.33;;;;;;;25.13;35.54;99834.16;4974689;28;20108;-58
2022/05/14 10:56:30;;;;;;;7.60;2.30;;;;;;;25.75;34.09;99841.13;4990440;28;20026;-58
2022/05/14 10:59:12;;;;;;;5.53;2.10;;;;;;;25.91;34.02;99848.84;4999380;28;20503;-58
2022/05/14 11:01:52;;;;;;;7.00;2.67;;;;;;;22.70;38.85;99847.69;4966312;28;20037;-58
2022/05/14 11:04:31;;;;;;;5.25;2.08;;;;;;;24.28;37.89;99845.56;5006280;28;20036;-58
2022/05/14 11:07:02;;;;;;;6.28;2.10;;;;;;;24.89;36.17;99837.44;5006008;28;20042;-58
2022/05/14 11:09:31;;;;;;;9.55;2.40;;;;;;;23.33;37.33;99848.66;5006546;28;20029;-58
2022/05/14 11:11:59;;;;;;;5.38;2.10;;;;;;;20.82;42.08;99842.72;5006157;28;20480;-58
2022/05/14 11:14:55;;;;;;;5.50;2.20;;;;;;;20.18;42.58;99842.19;5007016;28;20029;-58
2022/05/14 11:17:25;;;;;;;5.93;2.30;;;;;;;23.21;38.93;99837.50;5002809;28;20781;-57
2022/05/14 11:19:52;;;;;;;6.38;2.25;;;;;;;21.40;40.30;99833.34;4989972;28;20033;-57
2022/05/14 11:22:31;;;;;;;10.63;2.65;;;;;;;22.94;38.28;99825.56;5005912;28;20026;-58
2022/05/14 11:24:57;;;;;;;5.57;2.00;;;;;;;23.94;36.81;99829.03;5005332;28;20034;-57
2022/05/14 11:27:25;;;;;;;8.80;2.25;;;;;;;21.37;40.26;99828.47;5006345;28;20032;-57
2022/05/14 11:29:56;;;;;;;6.55;2.20;;;;;;;22.87;38.78;99825.19;5000500;28;20069;-58
2022/05/14 11:32:22;;;;;;;5.15;2.20;;;;;;;22.82;39.11;99828.03;4974886;28;20468;-57
2022/05/14 11:34:58;;;;;;;8.32;2.17;;;;;;;22.35;39.37;99824.72;4986801;28;20096;-57
2022/05/14 11:37:38;;;;;;;11.50;2.40;;;;;;;21.35;41.00;99817.06;5006554;28;20030;-57
2022/05/14 11:40:16;;;;;;;7.03;2.15;;;;;;;23.19;37.73;99823.34;4976968;28;20500;-57
2022/05/14 11:42:43;;;;;;;6.53;2.50;;;;;;;22.58;37.55;99822.84;4999003;28;20396;-57
2022/05/14 11:45:29;;;;;;;6.93;2.20;;;;;;;23.15;36.83;99819.63;5005646;28;20050;-57
2022/05/14 11:48:18;;;;;;;5.57;2.20;;;;;;;23.59;36.24;99812.47;5001587;28;20030;-57
2022/05/14 11:51:00;;;;;;;8.03;2.20;;;;;;;23.09;36.75;99812.63;4971690;28;20037;-57
2022/05/14 11:53:42;;;;;;;8.25;2.10;;;;;;;22.40;36.81;99819.16;4989218;28;20032;-57
2022/05/14 11:56:08;;;;;;;6.43;2.17;;;;;;;22.67;37.50;99812.00;4988249;28;20026;-58
2022/05/14 11:58:43;;;;;;;5.45;2.33;;;;;;;23.54;36.34;99805.19;4987835;28;20083;-58
2022/05/14 12:01:12;;;;;;;7.40;2.10;;;;;;;23.38;36.00;99807.50;4978576;28;20027;-57
2022/05/14 12:03:44;;;;;;;6.07;2.40;;;;;;;22.83;37.20;99802.31;4987374;28;20042;-58